createdAt,value
2019-02-10T00:00:55.459Z,60.97
2019-02-10T00:03:26.997Z,61.25
2019-02-10T00:05:58.775Z,61.24
2019-02-10T00:08:30.831Z,61.12
2019-02-10T00:11:02.359Z,61.28
2019-02-10T00:13:35.973Z,61.32
2019-02-10T00:16:19.723Z,61.36
2019-02-10T00:18:51.174Z,61.28
2019-02-10T00:21:23.529Z,61.14
2019-02-10T00:23:55.358Z,61.35
2019-02-10T00:26:27.566Z,61.03
2019-02-10T00:28:59.441Z,61.05
2019-02-10T00:31:31.186Z,61.26
2019-02-10T00:34:02.749Z,61.02
2019-02-10T00:36:34.287Z,60.93
2019-02-10T00:39:09.676Z,61.18
2019-02-10T00:41:41.408Z,61.35
2019-02-10T00:44:12.905Z,61.40
2019-02-10T00:46:44.534Z,61.55
2019-02-10T00:49:16.247Z,61.79
2019-02-10T00:51:48.323Z,61.75
2019-02-10T00:54:20.339Z,62.04
2019-02-10T00:56:51.871Z,62.36
2019-02-10T00:59:24.323Z,62.41
2019-02-10T01:01:55.971Z,62.35
2019-02-10T01:04:27.467Z,62.38
2019-02-10T01:06:59.048Z,62.38
2019-02-10T01:09:30.735Z,62.39
2019-02-10T01:12:02.363Z,62.57
2019-02-10T01:14:33.879Z,62.86
2019-02-10T01:17:05.405Z,63.04
2019-02-10T01:19:36.919Z,63.00
2019-02-10T01:22:10.083Z,63.30
2019-02-10T01:24:41.759Z,63.31
2019-02-10T01:27:13.345Z,63.15
2019-02-10T01:29:44.799Z,63.08
2019-02-10T01:32:16.567Z,63.28
2019-02-10T01:34:48.028Z,63.42
2019-02-10T01:37:19.620Z,63.33
2019-02-10T01:39:51.393Z,63.29
2019-02-10T01:42:22.984Z,63.15
2019-02-10T01:44:54.432Z,63.38
2019-02-10T01:47:26.201Z,63.21
2019-02-10T01:49:57.669Z,63.44
2019-02-10T01:52:29.228Z,63.64
2019-02-10T01:55:01.044Z,63.70
2019-02-10T01:57:32.811Z,63.77
2019-02-10T02:00:05.831Z,63.97
2019-02-10T02:02:38.521Z,64.32
2019-02-10T02:05:10.875Z,64.21
2019-02-10T02:07:42.487Z,64.26
2019-02-10T02:10:15.268Z,64.37
2019-02-10T02:12:47.072Z,64.38
2019-02-10T02:15:18.560Z,64.39
2019-02-10T02:17:50.371Z,64.65
2019-02-10T02:20:21.868Z,64.88
2019-02-10T02:22:53.423Z,64.90
2019-02-10T02:25:25.335Z,64.94
2019-02-10T02:27:56.835Z,64.97
2019-02-10T02:30:28.423Z,65.25
2019-02-10T02:33:00.227Z,65.10
2019-02-10T02:35:31.682Z,65.16
2019-02-10T02:38:04.352Z,65.11
2019-02-10T02:40:36.058Z,65.21
2019-02-10T02:43:07.658Z,65.01
2019-02-10T02:45:39.220Z,65.03
2019-02-10T02:48:10.970Z,64.88
2019-02-10T02:50:42.393Z,64.83
2019-02-10T02:53:14.189Z,64.73
2019-02-10T02:55:45.908Z,64.87
2019-02-10T02:58:17.700Z,64.92
2019-02-10T03:00:49.222Z,65.03
2019-02-10T03:03:20.910Z,64.82
2019-02-10T03:05:52.347Z,64.76
2019-02-10T03:08:23.947Z,64.50
2019-02-10T03:10:55.833Z,64.40
2019-02-10T03:13:27.396Z,64.89
2019-02-10T03:15:58.833Z,64.75
2019-02-10T03:18:30.461Z,64.73
2019-02-10T03:21:01.918Z,64.72
2019-02-10T03:23:33.758Z,65.05
2019-02-10T03:26:05.302Z,65.06
2019-02-10T03:28:36.979Z,65.00
2019-02-10T03:31:08.476Z,65.16
2019-02-10T03:33:40.278Z,65.18
2019-02-10T03:36:11.781Z,65.17
2019-02-10T03:38:43.487Z,65.05
2019-02-10T03:41:15.229Z,64.83
2019-02-10T03:43:46.783Z,64.90
2019-02-10T03:46:18.201Z,64.76
2019-02-10T03:48:49.930Z,64.83
2019-02-10T03:51:21.351Z,64.60
2019-02-10T03:53:52.886Z,64.60
2019-02-10T03:56:24.356Z,64.54
2019-02-10T03:58:55.959Z,64.28
2019-02-10T04:01:27.470Z,64.36
2019-02-10T04:03:58.989Z,64.21
2019-02-10T04:06:31.520Z,64.03
2019-02-10T04:09:04.012Z,64.01
2019-02-10T04:11:36.172Z,63.84
2019-02-10T04:14:07.691Z,63.80
2019-02-10T04:16:39.154Z,63.77
2019-02-10T04:19:10.668Z,63.83
2019-02-10T04:21:42.136Z,63.81
2019-02-10T04:24:13.684Z,64.08
2019-02-10T04:26:45.471Z,64.02
2019-02-10T04:29:17.238Z,63.84
2019-02-10T04:31:48.678Z,64.03
2019-02-10T04:34:20.336Z,63.92
2019-02-10T04:36:51.774Z,63.84
2019-02-10T04:39:23.442Z,64.21
2019-02-10T04:41:54.983Z,64.24
2019-02-10T04:44:26.561Z,64.30
2019-02-10T04:46:58.007Z,64.38
2019-02-10T04:49:29.661Z,64.51
2019-02-10T04:52:01.105Z,64.58
2019-02-10T04:54:32.633Z,64.65
2019-02-10T04:57:04.411Z,64.80
2019-02-10T04:59:36.181Z,64.68
2019-02-10T05:02:07.625Z,64.96
2019-02-10T05:04:39.170Z,64.86
2019-02-10T05:07:10.590Z,64.91
2019-02-10T05:09:42.102Z,64.89
2019-02-10T05:12:13.917Z,64.95
2019-02-10T05:14:45.721Z,65.12
2019-02-10T05:17:17.229Z,65.01
2019-02-10T05:19:48.821Z,65.03
2019-02-10T05:22:20.321Z,65.16
2019-02-10T05:24:52.037Z,65.41
2019-02-10T05:27:23.627Z,65.33
2019-02-10T05:29:55.347Z,65.52
2019-02-10T05:32:26.843Z,65.67
2019-02-10T05:34:58.525Z,65.70
2019-02-10T05:37:30.012Z,65.61
2019-02-10T05:40:01.768Z,65.58
2019-02-10T05:42:33.509Z,65.35
2019-02-10T05:45:05.356Z,65.36
2019-02-10T05:47:36.825Z,65.19
2019-02-10T05:50:08.777Z,65.34
2019-02-10T05:52:40.217Z,65.58
2019-02-10T05:55:11.919Z,65.48
2019-02-10T05:57:43.627Z,65.51
2019-02-10T06:00:15.360Z,65.59
2019-02-10T06:02:46.885Z,65.50
2019-02-10T06:05:22.324Z,65.42
2019-02-10T06:07:53.782Z,65.51
2019-02-10T06:10:25.256Z,65.51
2019-02-10T06:12:57.107Z,65.55
2019-02-10T06:15:28.544Z,65.42
2019-02-10T06:18:00.010Z,65.38
2019-02-10T06:20:31.540Z,65.45
2019-02-10T06:23:03.001Z,65.67
2019-02-10T06:25:34.615Z,65.45
2019-02-10T06:28:06.392Z,65.46
2019-02-10T06:30:38.104Z,65.48
2019-02-10T06:33:09.544Z,65.37
2019-02-10T06:35:41.098Z,65.52
2019-02-10T06:38:12.552Z,65.14
2019-02-10T06:40:44.288Z,65.10
2019-02-10T06:43:16.052Z,64.90
2019-02-10T06:45:47.704Z,64.94
2019-02-10T06:48:19.150Z,64.87
2019-02-10T06:50:50.771Z,64.76
2019-02-10T06:53:22.228Z,64.76
2019-02-10T06:55:53.925Z,64.70
2019-02-10T06:58:25.687Z,64.53
2019-02-10T07:01:09.768Z,64.36
2019-02-10T07:04:09.357Z,64.31
2019-02-10T07:06:40.804Z,64.17
2019-02-10T07:09:12.257Z,64.20
2019-02-10T07:11:43.709Z,64.03
2019-02-10T07:14:37.521Z,64.14
2019-02-10T07:18:21.630Z,63.85
2019-02-10T07:20:53.099Z,63.87
2019-02-10T07:24:20.846Z,63.40
2019-02-10T07:26:57.143Z,63.25
2019-02-10T07:30:04.639Z,63.13
2019-02-10T07:32:42.961Z,63.07
2019-02-10T07:36:05.993Z,62.62
2019-02-10T07:39:14.158Z,62.07
2019-02-10T07:42:26.524Z,62.10
2019-02-10T07:45:50.846Z,61.80
2019-02-10T07:49:03.831Z,61.90
2019-02-10T07:52:16.502Z,61.59
2019-02-10T07:55:36.439Z,61.47
2019-02-10T07:58:39.775Z,61.19
2019-02-10T08:01:55.888Z,60.37
2019-02-10T08:05:37.038Z,60.27
2019-02-10T08:08:48.119Z,59.01
2019-02-10T08:12:44.253Z,58.63
2019-02-10T08:15:46.717Z,58.42
2019-02-10T08:19:28.797Z,57.72
2019-02-10T08:22:44.534Z,57.46
2019-02-10T08:26:06.330Z,57.28
2019-02-10T08:29:26.452Z,56.59
2019-02-10T08:33:01.999Z,56.51
2019-02-10T08:35:52.397Z,56.10
2019-02-10T08:39:36.512Z,56.37
2019-02-10T08:42:37.921Z,56.19
2019-02-10T08:46:02.610Z,55.40
2019-02-10T08:49:31.579Z,55.00
2019-02-10T08:52:51.907Z,54.51
2019-02-10T08:55:20.792Z,53.68
2019-02-10T08:57:52.220Z,53.63
2019-02-10T09:00:23.873Z,53.76
2019-02-10T09:02:55.314Z,53.26
2019-02-10T09:05:27.208Z,53.20
2019-02-10T09:07:58.741Z,52.70
2019-02-10T09:10:30.557Z,53.28
2019-02-10T09:13:02.199Z,52.36
2019-02-10T09:15:33.746Z,51.77
2019-02-10T09:18:05.258Z,52.79
2019-02-10T09:20:37.782Z,52.96
2019-02-10T09:23:09.271Z,53.20
2019-02-10T09:25:40.741Z,52.21
2019-02-10T09:28:12.248Z,51.89
2019-02-10T09:30:43.834Z,51.84
2019-02-10T09:33:27.359Z,52.14
2019-02-10T09:35:59.177Z,51.79
2019-02-10T09:38:30.714Z,51.23
2019-02-10T09:41:02.398Z,51.15
2019-02-10T09:43:33.910Z,50.36
2019-02-10T09:46:05.444Z,50.53
2019-02-10T09:48:36.948Z,50.72
2019-02-10T09:51:08.821Z,49.91
2019-02-10T09:53:41.333Z,49.43
2019-02-10T09:56:13.159Z,50.60
2019-02-10T09:58:44.685Z,50.19
2019-02-10T10:01:16.469Z,49.73
2019-02-10T10:03:48.044Z,50.02
2019-02-10T10:06:20.198Z,50.23
2019-02-10T10:08:51.677Z,50.53
2019-02-10T10:11:23.495Z,50.98
2019-02-10T10:13:54.961Z,50.75
2019-02-10T10:16:26.704Z,51.54
2019-02-10T10:18:58.230Z,51.32
2019-02-10T10:21:30.215Z,51.01
2019-02-10T10:24:01.853Z,51.12
2019-02-10T10:26:33.364Z,50.64
2019-02-10T10:29:04.888Z,50.25
2019-02-10T10:31:36.416Z,49.91
2019-02-10T10:34:07.988Z,50.47
2019-02-10T10:36:40.155Z,49.71
2019-02-10T10:39:11.622Z,50.08
2019-02-10T10:41:43.287Z,50.22
2019-02-10T10:44:14.754Z,50.19
2019-02-10T10:46:46.303Z,49.92
2019-02-10T10:49:17.788Z,49.53
2019-02-10T10:51:49.574Z,49.53
2019-02-10T10:54:21.143Z,49.48
2019-02-10T10:56:52.849Z,49.06
2019-02-10T10:59:24.480Z,49.20
2019-02-10T11:01:56.224Z,49.10
2019-02-10T11:04:27.746Z,48.81
2019-02-10T11:06:59.925Z,48.67
2019-02-10T11:09:35.601Z,48.44
2019-02-10T11:12:04.908Z,48.45
2019-02-10T11:14:36.358Z,48.96
2019-02-10T11:17:10.481Z,48.26
2019-02-10T11:19:41.317Z,48.23
2019-02-10T11:22:13.372Z,47.91
2019-02-10T11:24:45.169Z,47.83
2019-02-10T11:27:17.050Z,47.92
2019-02-10T11:29:48.617Z,48.48
2019-02-10T11:32:20.402Z,47.85
2019-02-10T11:34:51.953Z,47.42
2019-02-10T11:37:26.858Z,47.30
2019-02-10T11:39:57.348Z,46.91
2019-02-10T11:42:28.843Z,47.33
2019-02-10T11:45:00.484Z,47.92
2019-02-10T11:47:32.291Z,47.67
2019-02-10T11:50:03.859Z,47.91
2019-02-10T11:52:36.326Z,48.08
2019-02-10T11:55:08.128Z,47.80
2019-02-10T11:57:40.376Z,47.80
2019-02-10T12:00:12.986Z,47.40
2019-02-10T12:02:44.798Z,47.58
2019-02-10T12:05:16.340Z,47.38
2019-02-10T12:07:48.399Z,47.18
2019-02-10T12:10:20.077Z,47.52
2019-02-10T12:12:51.836Z,47.20
2019-02-10T12:15:23.425Z,47.26
2019-02-10T12:17:55.223Z,47.78
2019-02-10T12:20:26.929Z,47.09
2019-02-10T12:22:59.168Z,47.31
2019-02-10T12:25:30.754Z,47.01
2019-02-10T12:28:02.709Z,46.87
2019-02-10T12:30:34.375Z,46.28
2019-02-10T12:33:06.302Z,46.25
2019-02-10T12:35:37.811Z,46.19
2019-02-10T12:38:09.820Z,45.66
2019-02-10T12:40:41.818Z,45.83
2019-02-10T12:43:13.722Z,46.17
2019-02-10T12:45:45.370Z,45.92
2019-02-10T12:48:17.276Z,44.66
2019-02-10T12:50:48.874Z,43.98
2019-02-10T12:53:20.780Z,44.27
2019-02-10T12:55:52.412Z,44.71
2019-02-10T12:58:23.895Z,44.01
2019-02-10T13:00:55.488Z,44.19
2019-02-10T13:03:27.132Z,43.41
2019-02-10T13:05:58.900Z,42.30
2019-02-10T13:08:31.125Z,41.79
2019-02-10T13:11:02.661Z,41.95
2019-02-10T13:13:34.579Z,42.09
2019-02-10T13:16:06.175Z,42.92
2019-02-10T13:18:38.179Z,42.70
2019-02-10T13:21:11.008Z,42.17
2019-02-10T13:23:43.119Z,41.59
2019-02-10T13:26:14.841Z,41.54
2019-02-10T13:28:46.627Z,40.38
2019-02-10T13:31:18.177Z,39.21
2019-02-10T13:33:50.053Z,37.14
2019-02-10T13:36:21.606Z,35.92
2019-02-10T13:38:53.696Z,35.93
2019-02-10T13:41:35.325Z,35.22
2019-02-10T13:44:08.377Z,34.75
2019-02-10T13:46:40.116Z,34.90
2019-02-10T13:49:11.804Z,35.76
2019-02-10T13:51:43.310Z,35.30
2019-02-10T13:54:15.417Z,34.77
2019-02-10T13:56:47.005Z,34.11
2019-02-10T13:59:18.761Z,34.46
2019-02-10T14:01:50.466Z,34.64
2019-02-10T14:04:22.149Z,34.38
2019-02-10T14:06:53.821Z,34.00
2019-02-10T14:09:25.776Z,33.86
2019-02-10T14:11:57.257Z,35.22
2019-02-10T14:14:29.185Z,36.66
2019-02-10T14:17:01.927Z,38.08
2019-02-10T14:19:35.245Z,39.85
2019-02-10T14:22:06.799Z,41.01
2019-02-10T14:24:38.722Z,41.89
2019-02-10T14:27:10.214Z,42.72
2019-02-10T14:29:41.722Z,43.41
2019-02-10T14:32:13.264Z,44.07
2019-02-10T14:34:44.913Z,44.80
2019-02-10T14:37:16.418Z,45.40
2019-02-10T14:39:48.142Z,46.24
2019-02-10T14:42:19.696Z,46.82
2019-02-10T14:44:51.484Z,47.53
2019-02-10T14:47:23.020Z,48.15
2019-02-10T14:49:54.664Z,48.48
2019-02-10T14:52:26.380Z,48.65
2019-02-10T14:54:58.071Z,48.90
2019-02-10T14:57:29.686Z,49.18
2019-02-10T15:00:01.265Z,49.23
2019-02-10T15:02:34.594Z,49.16
2019-02-10T15:05:06.564Z,49.34
2019-02-10T15:07:38.244Z,49.09
2019-02-10T15:10:13.104Z,49.16
2019-02-10T15:12:44.695Z,49.36
2019-02-10T15:15:16.586Z,49.73
2019-02-10T15:17:48.242Z,50.04
2019-02-10T15:20:19.991Z,50.20
2019-02-10T15:22:51.604Z,50.57
2019-02-10T15:25:23.551Z,50.69
2019-02-10T15:27:55.105Z,51.14
2019-02-10T15:30:26.860Z,51.35
2019-02-10T15:32:58.607Z,51.70
2019-02-10T15:35:30.458Z,52.06
2019-02-10T15:38:01.985Z,52.60
2019-02-10T15:40:34.091Z,52.93
2019-02-10T15:43:05.677Z,53.03
2019-02-10T15:45:37.775Z,53.47
2019-02-10T15:48:09.591Z,53.71
2019-02-10T15:50:41.309Z,54.01
2019-02-10T15:53:12.833Z,54.47
2019-02-10T15:55:44.595Z,54.94
2019-02-10T15:58:16.368Z,54.93
2019-02-10T16:00:48.232Z,54.90
2019-02-10T16:03:20.209Z,55.25
2019-02-10T16:05:51.929Z,55.30
2019-02-10T16:08:24.828Z,55.49
2019-02-10T16:10:58.474Z,55.13
2019-02-10T16:13:30.322Z,55.24
2019-02-10T16:16:01.964Z,55.37
2019-02-10T16:18:33.429Z,55.59
2019-02-10T16:21:05.656Z,54.84
2019-02-10T16:23:38.386Z,55.11
2019-02-10T16:26:10.712Z,55.22
2019-02-10T16:28:42.898Z,55.32
2019-02-10T16:31:14.429Z,55.19
2019-02-10T16:33:46.024Z,55.13
2019-02-10T16:36:17.788Z,55.29
2019-02-10T16:38:49.368Z,55.21
2019-02-10T16:41:21.732Z,55.47
2019-02-10T16:43:53.545Z,55.38
2019-02-10T16:46:25.536Z,55.35
2019-02-10T16:48:57.041Z,55.20
2019-02-10T16:51:28.793Z,55.38
2019-02-10T16:54:00.441Z,55.25
2019-02-10T16:56:32.685Z,55.36
2019-02-10T16:59:04.976Z,54.97
2019-02-10T17:01:38.047Z,54.91
2019-02-10T17:04:09.724Z,55.02
2019-02-10T17:06:41.639Z,55.23
2019-02-10T17:09:13.649Z,55.05
2019-02-10T17:11:45.591Z,54.90
2019-02-10T17:14:17.256Z,55.13
2019-02-10T17:16:49.407Z,55.35
2019-02-10T17:19:20.922Z,54.96
2019-02-10T17:21:52.956Z,55.12
2019-02-10T17:24:24.540Z,55.01
2019-02-10T17:26:56.971Z,55.08
2019-02-10T17:29:28.799Z,54.72
2019-02-10T17:32:01.122Z,54.82
2019-02-10T17:34:33.011Z,54.91
2019-02-10T17:37:04.586Z,54.85
2019-02-10T17:39:36.308Z,54.87
2019-02-10T17:42:08.330Z,55.05
2019-02-10T17:44:40.075Z,54.89
2019-02-10T17:47:11.957Z,54.83
2019-02-10T17:49:43.690Z,54.91
2019-02-10T17:52:15.732Z,55.12
2019-02-10T17:54:48.376Z,55.04
2019-02-10T17:57:20.539Z,54.99
2019-02-10T17:59:52.181Z,55.46
2019-02-10T18:02:24.038Z,55.20
2019-02-10T18:04:55.763Z,55.35
2019-02-10T18:07:27.571Z,55.54
2019-02-10T18:09:59.251Z,55.32
2019-02-10T18:12:31.307Z,55.34
2019-02-10T18:15:20.362Z,54.94
2019-02-10T18:18:20.222Z,55.23
2019-02-10T18:21:04.631Z,55.13
2019-02-10T18:23:54.384Z,55.03
2019-02-10T18:26:34.220Z,55.03
2019-02-10T18:29:16.951Z,55.11
2019-02-10T18:32:10.365Z,54.93
2019-02-10T18:34:58.290Z,54.95
2019-02-10T18:37:49.658Z,55.08
2019-02-10T18:40:32.796Z,55.08
2019-02-10T18:43:14.878Z,54.92
2019-02-10T18:46:02.753Z,54.89
2019-02-10T18:49:00.830Z,54.76
2019-02-10T18:52:03.343Z,54.87
2019-02-10T18:54:52.845Z,54.81
2019-02-10T18:57:43.387Z,55.03
2019-02-10T19:00:34.157Z,54.81
2019-02-10T19:03:22.324Z,55.00
2019-02-10T19:06:25.368Z,54.97
2019-02-10T19:09:19.712Z,54.87
2019-02-10T19:12:22.289Z,54.87
2019-02-10T19:15:15.838Z,54.96
2019-02-10T19:18:09.205Z,55.00
2019-02-10T19:20:58.092Z,55.14
2019-02-10T19:24:03.612Z,55.20
2019-02-10T19:26:57.427Z,55.33
2019-02-10T19:29:56.708Z,55.10
2019-02-10T19:32:47.358Z,55.10
2019-02-10T19:35:31.501Z,55.13
2019-02-10T19:38:26.851Z,55.05
2019-02-10T19:41:23.456Z,54.75
2019-02-10T19:44:10.513Z,55.16
2019-02-10T19:47:13.342Z,55.18
2019-02-10T19:50:06.829Z,55.31
2019-02-10T19:52:47.704Z,55.02
2019-02-10T19:55:34.514Z,55.28
2019-02-10T19:58:23.545Z,55.15
2019-02-10T20:01:17.577Z,55.25
2019-02-10T20:04:10.838Z,55.24
2019-02-10T20:07:00.365Z,55.12
2019-02-10T20:09:55.184Z,54.84
2019-02-10T20:12:52.207Z,54.95
2019-02-10T20:15:48.714Z,55.32
2019-02-10T20:18:42.182Z,55.19
2019-02-10T20:21:21.321Z,54.97
2019-02-10T20:24:21.368Z,54.96
2019-02-10T20:27:12.541Z,54.74
2019-02-10T20:30:03.288Z,54.90
2019-02-10T20:33:04.040Z,54.81
2019-02-10T20:35:53.222Z,54.88
2019-02-10T20:38:39.663Z,54.76
2019-02-10T20:41:30.443Z,54.58
2019-02-10T20:44:32.894Z,54.72
2019-02-10T20:47:18.205Z,54.81
2019-02-10T20:50:11.647Z,54.91
2019-02-10T20:53:09.237Z,55.06
2019-02-10T20:56:02.650Z,54.83
2019-02-10T20:58:42.759Z,54.95
2019-02-10T21:01:48.194Z,55.08
2019-02-10T21:04:43.229Z,55.17
2019-02-10T21:07:33.655Z,55.25
2019-02-10T21:10:23.778Z,55.37
2019-02-10T21:13:17.185Z,55.51
2019-02-10T21:16:02.858Z,55.29
2019-02-10T21:18:49.327Z,55.38
2019-02-10T21:21:28.405Z,55.31
2019-02-10T21:24:17.389Z,55.61
2019-02-10T21:27:08.317Z,55.65
2019-02-10T21:30:01.686Z,55.92
2019-02-10T21:32:49.805Z,55.42
2019-02-10T21:35:30.814Z,55.78
2019-02-10T21:38:12.244Z,56.04
2019-02-10T21:40:53.435Z,55.91
2019-02-10T21:43:32.745Z,55.92
2019-02-10T21:46:19.732Z,56.01
2019-02-10T21:49:00.373Z,55.99
2019-02-10T21:51:32.017Z,56.03
2019-02-10T21:54:03.545Z,56.01
2019-02-10T21:56:35.135Z,56.57
2019-02-10T21:59:06.749Z,56.25
2019-02-10T22:01:38.293Z,56.28
2019-02-10T22:04:09.916Z,56.22
2019-02-10T22:06:41.524Z,56.40
2019-02-10T22:09:13.101Z,56.42
2019-02-10T22:11:45.110Z,56.40
2019-02-10T22:14:16.847Z,56.35
2019-02-10T22:16:49.324Z,56.62
2019-02-10T22:19:21.081Z,56.63
2019-02-10T22:21:52.944Z,56.60
2019-02-10T22:24:24.571Z,56.80
2019-02-10T22:26:56.184Z,56.75
2019-02-10T22:29:27.999Z,56.85
2019-02-10T22:31:59.503Z,57.05
2019-02-10T22:34:31.074Z,57.19
2019-02-10T22:37:02.795Z,57.15
2019-02-10T22:39:34.460Z,57.14
2019-02-10T22:42:06.181Z,57.31
2019-02-10T22:44:38.070Z,57.27
2019-02-10T22:47:09.634Z,57.18
2019-02-10T22:49:41.702Z,57.13
2019-02-10T22:52:13.507Z,57.53
2019-02-10T22:54:45.287Z,57.44
2019-02-10T22:57:16.817Z,57.38
2019-02-10T22:59:48.604Z,57.65
2019-02-10T23:02:20.135Z,57.45
2019-02-10T23:04:51.905Z,57.60
2019-02-10T23:07:23.652Z,57.62
2019-02-10T23:09:55.530Z,57.73
2019-02-10T23:12:27.030Z,57.78
2019-02-10T23:14:58.755Z,58.14
2019-02-10T23:17:30.218Z,58.15
2019-02-10T23:20:01.810Z,57.99
2019-02-10T23:22:33.897Z,57.93
2019-02-10T23:25:06.188Z,57.89
2019-02-10T23:27:37.761Z,57.84
2019-02-10T23:30:09.341Z,57.84
2019-02-10T23:32:40.915Z,58.07
2019-02-10T23:35:12.457Z,57.90
2019-02-10T23:37:43.979Z,58.18
2019-02-10T23:40:15.485Z,58.12
2019-02-10T23:42:46.928Z,58.29
2019-02-10T23:45:18.393Z,58.49
2019-02-10T23:47:50.104Z,58.46
2019-02-10T23:50:22.085Z,58.38
2019-02-10T23:52:53.933Z,58.36
2019-02-10T23:55:26.147Z,58.53
2019-02-10T23:57:57.749Z,58.45
